Tagus, North Dakota
Current Conditions -  °F | °C
As of 12:23 PM on Thursday 30 Oct 2014 (Local Time) from KMIB Reporting Station
Overcast Overcast  
Wind Chill: 22°   Ceiling: 1400
Heat Index: 32°   Visibility: 10mi
Dew Point: 28°   Wind: 15mph
Humidity: 87%   Direction: 30°NNE
Pressure: 30.42"   Gusts: NA
Location:  48.3281°N, 101.856°W
Report Text: KMIB 301723Z AUTO 03013KT 10SM OVC014 00/M02 A3042 RMK AO2 $
Loading
Personal Weather Stations






























Interactive Weather Map
Tropical Storm Tracking
New forecast layout! Learn more

10-Day Weather Forecast

Advertisements
Track Severe Weather on mobile